createdAt,value
2023-02-02T00:01:11.537Z,1.70
2023-02-02T00:03:38.421Z,1.85
2023-02-02T00:06:05.780Z,1.80
2023-02-02T00:08:32.655Z,1.40
2023-02-02T00:10:59.491Z,1.30
2023-02-02T00:13:26.263Z,1.25
2023-02-02T00:15:53.444Z,1.35
2023-02-02T00:18:20.277Z,1.55
2023-02-02T00:20:49.435Z,1.42
2023-02-02T00:23:18.118Z,1.30
2023-02-02T00:25:49.701Z,1.70
2023-02-02T00:28:16.587Z,2.25
2023-02-02T00:30:43.631Z,1.20
2023-02-02T00:33:10.418Z,1.52
2023-02-02T00:35:39.973Z,1.48
2023-02-02T00:38:06.742Z,1.17
2023-02-02T00:40:33.611Z,1.60
2023-02-02T00:43:00.420Z,1.60
2023-02-02T00:45:27.309Z,1.42
2023-02-02T00:47:54.232Z,1.30
2023-02-02T00:50:22.722Z,1.30
2023-02-02T00:52:49.811Z,1.13
2023-02-02T00:55:17.591Z,1.20
2023-02-02T00:57:44.495Z,1.33
2023-02-02T01:00:13.521Z,1.80
2023-02-02T01:02:40.335Z,1.35
2023-02-02T01:05:07.319Z,1.67
2023-02-02T01:07:34.131Z,1.83
2023-02-02T01:10:01.046Z,1.40
2023-02-02T01:12:27.834Z,1.98
2023-02-02T01:14:54.684Z,1.42
2023-02-02T01:17:21.666Z,1.65
2023-02-02T01:19:48.530Z,1.90
2023-02-02T01:22:15.354Z,1.80
2023-02-02T01:24:43.247Z,2.00
2023-02-02T01:27:10.087Z,1.35
2023-02-02T01:29:36.920Z,1.73
2023-02-02T01:32:04.133Z,1.40
2023-02-02T01:34:31.083Z,2.08
2023-02-02T01:36:57.961Z,1.70
2023-02-02T01:39:24.817Z,1.70
2023-02-02T01:41:51.733Z,1.90
2023-02-02T01:44:37.144Z,1.50
2023-02-02T01:47:04.060Z,1.45
2023-02-02T01:49:30.903Z,2.50
2023-02-02T01:51:59.287Z,1.23
2023-02-02T01:54:30.860Z,1.17
2023-02-02T01:59:25.199Z,2.00
2023-02-02T02:01:52.811Z,1.80
2023-02-02T02:04:19.634Z,1.80
2023-02-02T02:06:46.590Z,1.17
2023-02-02T02:09:13.400Z,1.63
2023-02-02T02:11:40.223Z,1.40
2023-02-02T02:14:28.112Z,1.38
2023-02-02T02:16:54.933Z,1.40
2023-02-02T02:19:37.128Z,1.40
2023-02-02T02:22:29.311Z,1.20
2023-02-02T02:25:22.073Z,1.08
2023-02-02T02:28:27.929Z,1.20
2023-02-02T02:31:13.259Z,1.05
2023-02-02T02:34:00.404Z,1.23
2023-02-02T02:36:32.905Z,1.30
2023-02-02T02:38:59.767Z,1.45
2023-02-02T02:41:29.909Z,1.33
2023-02-02T02:43:59.920Z,1.40
2023-02-02T02:46:26.935Z,1.30
2023-02-02T02:48:56.770Z,1.20
2023-02-02T02:51:43.677Z,1.40
2023-02-02T02:54:12.014Z,1.13
2023-02-02T02:56:41.855Z,0.95
2023-02-02T02:59:19.936Z,1.13
2023-02-02T03:01:55.853Z,1.05
2023-02-02T03:04:27.364Z,1.65
2023-02-02T03:07:02.168Z,1.00
2023-02-02T03:09:32.917Z,1.30
2023-02-02T03:12:00.246Z,0.90
2023-02-02T03:14:27.128Z,1.30
2023-02-02T03:16:53.970Z,1.15
2023-02-02T03:19:21.088Z,1.27
2023-02-02T03:21:47.978Z,1.13
2023-02-02T03:24:14.854Z,1.15
2023-02-02T03:26:41.740Z,1.08
2023-02-02T03:29:08.625Z,1.50
2023-02-02T03:31:35.494Z,1.13
2023-02-02T03:34:02.308Z,1.20
2023-02-02T03:36:29.267Z,1.30
2023-02-02T03:38:56.066Z,1.63
2023-02-02T03:41:22.882Z,1.60
2023-02-02T03:43:49.703Z,1.50
2023-02-02T03:46:16.525Z,1.20
2023-02-02T03:48:43.353Z,1.58
2023-02-02T03:51:14.254Z,1.58
2023-02-02T03:53:44.429Z,1.20
2023-02-02T03:56:11.332Z,1.20
2023-02-02T03:58:38.296Z,1.20
2023-02-02T04:01:06.358Z,1.27
2023-02-02T04:03:33.337Z,1.20
2023-02-02T04:06:00.600Z,1.50
2023-02-02T04:08:28.480Z,1.33
2023-02-02T04:10:55.425Z,1.20
2023-02-02T04:13:22.223Z,1.20
2023-02-02T04:15:56.058Z,1.30
2023-02-02T04:18:22.931Z,1.13
2023-02-02T04:20:49.745Z,1.15
2023-02-02T04:23:16.583Z,1.23
2023-02-02T04:25:52.611Z,1.25
2023-02-02T04:28:19.685Z,1.20
2023-02-02T04:30:46.534Z,1.33
2023-02-02T04:33:13.454Z,1.05
2023-02-02T04:35:40.309Z,1.20
2023-02-02T04:38:07.296Z,1.10
2023-02-02T04:40:34.254Z,1.42
2023-02-02T04:43:01.099Z,1.25
2023-02-02T04:45:28.225Z,1.80
2023-02-02T04:47:55.151Z,1.33
2023-02-02T04:50:22.110Z,1.60
2023-02-02T04:52:48.941Z,1.27
2023-02-02T04:55:15.817Z,1.77
2023-02-02T04:57:42.731Z,1.17
2023-02-02T05:00:11.502Z,1.38
2023-02-02T05:02:39.074Z,1.20
2023-02-02T05:05:06.739Z,1.35
2023-02-02T05:07:33.518Z,1.35
2023-02-02T05:10:00.354Z,1.10
2023-02-02T05:12:27.151Z,1.35
2023-02-02T05:14:53.928Z,1.83
2023-02-02T05:17:20.788Z,1.60
2023-02-02T05:19:47.616Z,1.30
2023-02-02T05:22:14.521Z,1.10
2023-02-02T05:24:41.356Z,1.20
2023-02-02T05:27:08.204Z,1.30
2023-02-02T05:29:35.041Z,1.20
2023-02-02T05:32:01.885Z,1.05
2023-02-02T05:34:28.729Z,0.90
2023-02-02T05:36:55.577Z,1.63
2023-02-02T05:39:22.410Z,1.60
2023-02-02T05:41:49.252Z,1.20
2023-02-02T05:44:16.066Z,1.10
2023-02-02T05:46:42.908Z,1.13
2023-02-02T05:49:12.715Z,1.38
2023-02-02T05:51:42.720Z,1.27
2023-02-02T05:54:09.530Z,0.98
2023-02-02T05:56:36.321Z,0.90
2023-02-02T05:59:07.422Z,1.17
2023-02-02T06:01:34.548Z,0.80
2023-02-02T06:04:03.704Z,1.60
2023-02-02T06:06:30.697Z,1.02
2023-02-02T06:08:57.550Z,1.52
2023-02-02T06:11:24.405Z,1.25
2023-02-02T06:13:51.234Z,1.10
2023-02-02T06:16:18.086Z,1.15
2023-02-02T06:18:45.368Z,0.98
2023-02-02T06:21:12.322Z,1.05
2023-02-02T06:23:43.514Z,1.20
2023-02-02T06:26:10.357Z,1.00
2023-02-02T06:28:37.158Z,0.73
2023-02-02T06:31:08.194Z,0.98
2023-02-02T06:33:35.151Z,0.90
2023-02-02T06:36:02.672Z,0.70
2023-02-02T06:38:29.534Z,0.80
2023-02-02T06:40:58.892Z,0.55
2023-02-02T06:43:25.694Z,0.63
2023-02-02T06:45:52.597Z,0.98
2023-02-02T06:48:21.760Z,0.90
2023-02-02T06:50:48.580Z,0.77
2023-02-02T06:53:16.008Z,1.00
2023-02-02T06:55:42.923Z,0.88
2023-02-02T06:58:09.746Z,0.90
2023-02-02T07:00:38.294Z,1.45
2023-02-02T07:03:05.265Z,1.20
2023-02-02T07:05:32.245Z,0.90
2023-02-02T07:07:59.187Z,1.02
2023-02-02T07:11:13.278Z,1.00
2023-02-02T07:13:13.046Z,1.20
2023-02-02T07:15:40.604Z,0.77
2023-02-02T07:18:07.897Z,1.00
2023-02-02T07:20:34.713Z,0.70
2023-02-02T07:23:04.266Z,1.40
2023-02-02T07:25:31.138Z,1.20
2023-02-02T07:27:57.975Z,1.52
2023-02-02T07:30:25.598Z,0.77
2023-02-02T07:32:52.499Z,0.90
2023-02-02T07:35:19.411Z,1.00
2023-02-02T07:37:51.174Z,1.30
2023-02-02T07:42:46.488Z,0.90
2023-02-02T07:45:35.762Z,1.38
2023-02-02T07:48:00.337Z,0.70
2023-02-02T07:50:28.277Z,0.93
2023-02-02T07:52:55.353Z,1.00
2023-02-02T07:55:22.254Z,0.80
2023-02-02T07:57:49.077Z,0.90
2023-02-02T08:00:16.080Z,0.82
2023-02-02T08:02:43.113Z,1.05
2023-02-02T08:05:10.038Z,0.70
2023-02-02T08:07:36.900Z,0.88
2023-02-02T08:10:03.880Z,0.88
2023-02-02T08:12:30.733Z,0.77
2023-02-02T08:14:59.110Z,0.82
2023-02-02T08:17:26.179Z,1.08
2023-02-02T08:19:52.999Z,0.57
2023-02-02T08:22:20.446Z,0.90
2023-02-02T08:24:48.193Z,0.90
2023-02-02T08:27:16.164Z,0.75
2023-02-02T08:29:43.452Z,1.38
2023-02-02T08:32:10.300Z,0.90
2023-02-02T08:34:37.195Z,1.08
2023-02-02T08:37:04.441Z,0.90
2023-02-02T08:39:31.240Z,0.70
2023-02-02T08:41:58.308Z,0.70
2023-02-02T08:44:26.921Z,0.52
2023-02-02T08:46:55.370Z,0.82
2023-02-02T08:49:23.189Z,0.60
2023-02-02T08:51:50.048Z,0.80
2023-02-02T08:54:16.863Z,1.10
2023-02-02T08:56:43.939Z,1.00
2023-02-02T08:59:10.796Z,0.80
2023-02-02T09:01:37.612Z,0.80
2023-02-02T09:04:08.765Z,0.57
2023-02-02T09:06:37.017Z,0.88
2023-02-02T09:09:06.006Z,0.90
2023-02-02T09:11:33.091Z,0.95
2023-02-02T09:14:02.140Z,0.90
2023-02-02T09:16:29.441Z,1.00
2023-02-02T09:18:56.666Z,0.80
2023-02-02T09:21:23.858Z,0.80
2023-02-02T09:23:51.410Z,1.08
2023-02-02T09:26:25.636Z,0.80
2023-02-02T09:28:54.581Z,0.98
2023-02-02T09:31:21.945Z,0.82
2023-02-02T09:33:48.924Z,0.90
2023-02-02T09:36:17.301Z,0.75
2023-02-02T09:38:44.569Z,1.10
2023-02-02T09:41:11.488Z,1.27
2023-02-02T09:43:57.092Z,1.00
2023-02-02T09:46:34.964Z,1.10
2023-02-02T09:51:31.043Z,1.30
2023-02-02T09:54:04.844Z,1.33
2023-02-02T09:56:38.631Z,1.10
2023-02-02T09:59:19.380Z,1.20
2023-02-02T10:01:49.632Z,1.00
2023-02-02T10:04:22.349Z,1.00
2023-02-02T10:06:50.868Z,0.80
2023-02-02T10:09:27.142Z,1.23
2023-02-02T10:11:53.993Z,1.10
2023-02-02T10:14:27.087Z,1.20
2023-02-02T10:16:54.745Z,0.93
2023-02-02T10:19:29.066Z,1.30
2023-02-02T10:21:58.976Z,1.35
2023-02-02T10:24:28.013Z,0.80
2023-02-02T10:27:07.091Z,1.15
2023-02-02T10:29:57.318Z,1.00
2023-02-02T10:32:28.325Z,0.80
2023-02-02T10:35:13.414Z,1.08
2023-02-02T10:37:40.905Z,0.90
2023-02-02T10:40:26.534Z,0.70
2023-02-02T10:43:23.117Z,1.10
2023-02-02T10:45:51.027Z,0.90
2023-02-02T10:48:22.185Z,0.82
2023-02-02T10:50:50.820Z,1.00
2023-02-02T10:53:17.636Z,0.82
2023-02-02T10:55:49.469Z,0.82
2023-02-02T10:58:48.795Z,1.05
2023-02-02T11:01:18.285Z,1.52
2023-02-02T11:03:45.443Z,4.28
2023-02-02T11:06:31.941Z,1.60
2023-02-02T11:09:04.034Z,1.10
2023-02-02T11:11:39.929Z,0.98
2023-02-02T11:14:09.872Z,1.67
2023-02-02T11:16:43.127Z,1.30
2023-02-02T11:19:17.009Z,1.10
2023-02-02T11:21:48.678Z,1.10
2023-02-02T11:24:22.006Z,1.20
2023-02-02T11:26:55.341Z,1.10
2023-02-02T11:29:42.379Z,1.08
2023-02-02T11:32:19.285Z,1.10
2023-02-02T11:34:47.300Z,1.10
2023-02-02T11:37:15.467Z,1.30
2023-02-02T11:39:43.253Z,0.90
2023-02-02T11:42:17.502Z,1.10
2023-02-02T11:44:51.931Z,1.10
2023-02-02T11:47:24.877Z,0.80
2023-02-02T11:49:53.421Z,0.80
2023-02-02T11:52:22.060Z,1.00
2023-02-02T11:54:50.463Z,0.98
2023-02-02T11:57:21.817Z,1.00
2023-02-02T11:59:50.077Z,0.93
2023-02-02T12:02:17.089Z,1.10
2023-02-02T12:04:43.997Z,0.85
2023-02-02T12:07:20.020Z,1.05
2023-02-02T12:09:47.558Z,1.10
2023-02-02T12:12:20.719Z,1.33
2023-02-02T12:15:10.937Z,0.93
2023-02-02T12:17:39.655Z,0.90
2023-02-02T12:20:29.623Z,0.82
2023-02-02T12:23:15.190Z,0.98
2023-02-02T12:26:00.545Z,1.20
2023-02-02T12:28:33.436Z,1.08
2023-02-02T12:31:00.285Z,1.00
2023-02-02T12:33:38.605Z,1.20
2023-02-02T12:36:24.304Z,1.23
2023-02-02T12:38:55.170Z,1.10
2023-02-02T12:41:34.069Z,0.93
2023-02-02T12:44:12.918Z,1.42
2023-02-02T12:46:58.554Z,0.90
2023-02-02T12:49:25.320Z,0.73
2023-02-02T12:52:16.104Z,1.40
2023-02-02T12:54:57.692Z,0.90
2023-02-02T12:57:43.798Z,0.80
2023-02-02T13:00:10.581Z,0.80
2023-02-02T13:02:44.531Z,1.08
2023-02-02T13:05:20.315Z,1.00
2023-02-02T13:07:49.741Z,1.08
2023-02-02T13:10:19.000Z,0.73
2023-02-02T13:13:01.407Z,1.00
2023-02-02T13:15:36.541Z,0.70
2023-02-02T13:18:08.704Z,0.90
2023-02-02T13:20:38.660Z,0.68
2023-02-02T13:23:15.263Z,0.60
2023-02-02T13:25:49.187Z,0.70
2023-02-02T13:28:18.687Z,0.80
2023-02-02T13:30:47.455Z,0.68
2023-02-02T13:33:18.689Z,0.70
2023-02-02T13:35:51.207Z,0.82
2023-02-02T13:38:21.781Z,1.00
2023-02-02T13:40:48.793Z,0.90
2023-02-02T13:43:21.821Z,0.75
2023-02-02T13:46:00.828Z,1.25
2023-02-02T13:48:36.930Z,0.82
2023-02-02T13:51:06.738Z,0.60
2023-02-02T13:53:36.590Z,0.60
2023-02-02T13:56:15.518Z,0.52
2023-02-02T13:58:50.425Z,0.80
2023-02-02T14:01:17.429Z,0.77
2023-02-02T14:03:55.350Z,0.60
2023-02-02T14:06:26.060Z,0.68
2023-02-02T14:08:55.131Z,0.68
2023-02-02T14:11:24.175Z,0.70
2023-02-02T14:14:11.023Z,0.50
2023-02-02T14:16:37.835Z,0.80
2023-02-02T14:19:06.555Z,0.50
2023-02-02T14:21:33.501Z,0.70
2023-02-02T14:24:19.165Z,0.60
2023-02-02T14:26:46.417Z,0.85
2023-02-02T14:29:31.982Z,0.47
2023-02-02T14:32:01.632Z,0.40
2023-02-02T14:34:28.599Z,0.40
2023-02-02T14:37:20.659Z,0.40
2023-02-02T14:39:50.513Z,0.57
2023-02-02T14:42:36.244Z,0.50
2023-02-02T14:45:12.556Z,0.30
2023-02-02T14:47:50.254Z,0.40
2023-02-02T14:50:20.685Z,0.40
2023-02-02T14:52:56.393Z,0.40
2023-02-02T14:55:23.830Z,0.40
2023-02-02T14:57:58.809Z,0.50
2023-02-02T15:00:33.459Z,0.38
2023-02-02T15:03:19.246Z,0.20
2023-02-02T15:05:46.482Z,0.45
2023-02-02T15:08:42.806Z,0.30
2023-02-02T15:11:28.144Z,0.50
2023-02-02T15:13:57.633Z,0.40
2023-02-02T15:16:28.541Z,0.50
2023-02-02T15:19:00.175Z,0.50
2023-02-02T15:21:28.007Z,0.38
2023-02-02T15:23:55.885Z,0.40
2023-02-02T15:26:25.729Z,0.35
2023-02-02T15:29:05.688Z,0.35
2023-02-02T15:31:35.503Z,0.40
2023-02-02T15:34:25.108Z,0.40
2023-02-02T15:36:52.955Z,0.50
2023-02-02T15:39:26.352Z,0.32
2023-02-02T15:42:16.066Z,0.50
2023-02-02T15:44:43.978Z,0.43
2023-02-02T15:47:15.256Z,0.40
2023-02-02T15:49:42.158Z,0.52
2023-02-02T15:52:17.372Z,0.60
2023-02-02T15:54:52.117Z,0.35
2023-02-02T15:57:37.854Z,0.47
2023-02-02T16:00:39.997Z,0.40
2023-02-02T16:03:15.080Z,0.40
2023-02-02T16:05:44.151Z,0.30
2023-02-02T16:08:19.815Z,0.40
2023-02-02T16:10:49.004Z,0.40
2023-02-02T16:13:22.600Z,0.47
2023-02-02T16:15:57.074Z,0.30
2023-02-02T16:18:24.035Z,0.65
2023-02-02T16:20:53.137Z,0.30
2023-02-02T16:23:31.357Z,0.98
2023-02-02T16:25:59.429Z,0.43
2023-02-02T16:28:26.936Z,0.30
2023-02-02T16:30:53.825Z,0.20
2023-02-02T16:33:26.943Z,0.47
2023-02-02T16:35:53.950Z,0.35
2023-02-02T16:38:24.111Z,0.50
2023-02-02T16:41:01.652Z,0.40
2023-02-02T16:43:29.839Z,0.10
2023-02-02T16:45:58.371Z,0.28
2023-02-02T16:48:29.888Z,0.40
2023-02-02T16:53:24.247Z,0.47
2023-02-02T16:55:51.822Z,0.40
2023-02-02T16:58:20.680Z,0.32
2023-02-02T17:01:15.478Z,0.50
2023-02-02T17:03:50.239Z,0.65
2023-02-02T17:06:17.284Z,0.30
2023-02-02T17:08:44.124Z,0.50
2023-02-02T17:11:16.954Z,0.40
2023-02-02T17:13:43.744Z,0.40
2023-02-02T17:16:16.412Z,0.40
2023-02-02T17:18:43.454Z,0.40
2023-02-02T17:21:14.769Z,0.52
2023-02-02T17:23:41.749Z,0.35
2023-02-02T17:26:09.052Z,0.70
2023-02-02T17:28:37.433Z,0.38
2023-02-02T17:31:08.694Z,0.28
2023-02-02T17:33:36.054Z,0.30
2023-02-02T17:36:04.734Z,0.30
2023-02-02T17:38:32.567Z,0.38
2023-02-02T17:41:01.730Z,0.50
2023-02-02T17:43:29.907Z,0.40
2023-02-02T17:45:56.805Z,0.50
2023-02-02T17:48:23.732Z,0.40
2023-02-02T17:50:50.563Z,0.30
2023-02-02T17:53:19.442Z,0.20
2023-02-02T17:55:46.676Z,0.40
2023-02-02T17:58:17.057Z,0.40
2023-02-02T18:00:48.203Z,0.30
2023-02-02T18:03:21.328Z,0.45
2023-02-02T18:05:48.437Z,0.30
2023-02-02T18:08:15.355Z,0.13
2023-02-02T18:10:42.746Z,0.30
2023-02-02T18:13:17.129Z,0.40
2023-02-02T18:15:44.051Z,0.30
2023-02-02T18:18:14.392Z,0.40
2023-02-02T18:20:42.559Z,0.15
2023-02-02T18:23:09.437Z,0.45
2023-02-02T18:25:37.542Z,0.30
2023-02-02T18:28:04.477Z,0.38
2023-02-02T18:30:31.352Z,0.30
2023-02-02T18:32:58.495Z,0.30
2023-02-02T18:35:25.667Z,0.28
2023-02-02T18:37:52.702Z,0.40
2023-02-02T18:40:19.568Z,0.38
2023-02-02T18:42:46.799Z,0.32
2023-02-02T18:45:13.620Z,0.35
2023-02-02T18:47:41.535Z,0.47
2023-02-02T18:50:08.914Z,0.20
2023-02-02T18:52:35.696Z,0.40
2023-02-02T18:55:02.499Z,0.22
2023-02-02T18:57:30.377Z,0.20
2023-02-02T18:59:57.271Z,0.30
2023-02-02T19:02:25.569Z,0.38
2023-02-02T19:05:11.107Z,0.35
2023-02-02T19:07:56.529Z,0.20
2023-02-02T19:10:24.947Z,0.60
2023-02-02T19:12:54.146Z,0.32
2023-02-02T19:15:21.340Z,0.50
2023-02-02T19:17:50.623Z,0.30
2023-02-02T19:20:24.913Z,0.30
2023-02-02T19:22:54.867Z,0.30
2023-02-02T19:25:21.696Z,0.30
2023-02-02T19:27:48.506Z,0.40
2023-02-02T19:30:18.315Z,0.35
2023-02-02T19:32:45.264Z,0.60
2023-02-02T19:35:20.729Z,0.40
2023-02-02T19:37:48.640Z,0.40
2023-02-02T19:40:20.334Z,0.35
2023-02-02T19:42:54.263Z,0.40
2023-02-02T19:45:29.673Z,0.30
2023-02-02T19:47:57.374Z,0.43
2023-02-02T19:50:26.184Z,0.82
2023-02-02T19:52:54.253Z,0.50
2023-02-02T19:55:28.641Z,0.38
2023-02-02T19:58:01.253Z,0.35
2023-02-02T20:00:29.942Z,0.32
2023-02-02T20:03:01.383Z,0.47
2023-02-02T20:05:38.852Z,0.50
2023-02-02T20:08:13.942Z,0.40
2023-02-02T20:10:46.153Z,0.40
2023-02-02T20:13:22.630Z,0.38
2023-02-02T20:15:50.811Z,0.50
2023-02-02T20:18:26.561Z,0.50
2023-02-02T20:20:54.941Z,0.40
2023-02-02T20:23:29.758Z,0.20
2023-02-02T20:25:57.588Z,0.35
2023-02-02T20:28:45.014Z,0.43
2023-02-02T20:31:14.207Z,0.47
2023-02-02T20:33:49.880Z,0.52
2023-02-02T20:36:31.184Z,0.60
2023-02-02T20:39:27.663Z,0.50
2023-02-02T20:41:56.494Z,0.60
2023-02-02T20:44:23.989Z,0.60
2023-02-02T20:46:50.939Z,0.40
2023-02-02T20:49:17.921Z,0.45
2023-02-02T20:51:44.759Z,0.57
2023-02-02T20:54:11.642Z,0.35
2023-02-02T20:56:38.479Z,0.35
2023-02-02T20:59:07.296Z,0.50
2023-02-02T21:01:34.488Z,0.30
2023-02-02T21:04:01.333Z,0.50
2023-02-02T21:06:28.847Z,0.52
2023-02-02T21:08:55.774Z,0.68
2023-02-02T21:11:22.574Z,0.43
2023-02-02T21:13:50.245Z,0.55
2023-02-02T21:16:17.392Z,0.25
2023-02-02T21:18:47.265Z,0.40
2023-02-02T21:21:15.893Z,0.50
2023-02-02T21:23:52.312Z,0.32
2023-02-02T21:26:20.578Z,0.73
2023-02-02T21:28:48.139Z,0.60
2023-02-02T21:31:15.920Z,0.30
2023-02-02T21:33:43.577Z,0.60
2023-02-02T21:36:10.540Z,0.43
2023-02-02T21:38:37.408Z,0.47
2023-02-02T21:41:09.215Z,0.57
2023-02-02T21:43:37.161Z,0.50
2023-02-02T21:46:04.058Z,0.55
2023-02-02T21:48:35.358Z,0.40
2023-02-02T21:51:21.185Z,0.38
2023-02-02T21:53:48.000Z,0.40
2023-02-02T21:56:23.811Z,0.50
2023-02-02T21:58:50.599Z,0.60
2023-02-02T22:01:21.752Z,0.40
2023-02-02T22:03:50.022Z,0.80
2023-02-02T22:06:16.922Z,0.68
2023-02-02T22:08:43.792Z,0.70
2023-02-02T22:11:17.247Z,0.70
2023-02-02T22:13:44.008Z,0.60
2023-02-02T22:16:15.411Z,0.50
2023-02-02T22:18:42.218Z,0.63
2023-02-02T22:21:12.542Z,0.70
2023-02-02T22:23:39.371Z,0.50
2023-02-02T22:26:16.372Z,0.57
2023-02-02T22:28:43.147Z,0.63
2023-02-02T22:31:10.000Z,0.80
2023-02-02T22:33:36.936Z,0.80
2023-02-02T22:36:03.907Z,0.60
2023-02-02T22:38:30.693Z,0.47
2023-02-02T22:40:57.540Z,0.90
2023-02-02T22:43:24.411Z,0.60
2023-02-02T22:45:51.236Z,0.60
2023-02-02T22:48:18.165Z,0.65
2023-02-02T22:50:44.959Z,0.60
2023-02-02T22:53:13.905Z,1.00
2023-02-02T22:55:40.803Z,0.40
2023-02-02T22:58:07.603Z,0.80
2023-02-02T23:00:34.472Z,0.55
2023-02-02T23:03:01.372Z,0.43
2023-02-02T23:05:28.715Z,0.70
2023-02-02T23:07:55.651Z,0.68
2023-02-02T23:10:30.201Z,0.50
2023-02-02T23:13:01.307Z,0.65
2023-02-02T23:15:28.408Z,0.40
2023-02-02T23:17:55.482Z,0.50
2023-02-02T23:20:23.547Z,0.40
2023-02-02T23:22:51.116Z,0.65
2023-02-02T23:25:21.990Z,0.52
2023-02-02T23:27:49.209Z,0.70
2023-02-02T23:30:16.368Z,0.50
2023-02-02T23:32:43.280Z,0.52
2023-02-02T23:35:10.885Z,0.70
2023-02-02T23:37:38.310Z,0.50
2023-02-02T23:40:05.407Z,0.40
2023-02-02T23:42:32.272Z,0.63
2023-02-02T23:44:59.078Z,0.95
2023-02-02T23:47:26.080Z,0.60
2023-02-02T23:49:53.059Z,0.60
2023-02-02T23:52:19.953Z,0.60
2023-02-02T23:54:46.916Z,0.60
2023-02-02T23:57:13.745Z,0.80
2023-02-02T23:59:42.825Z,0.43
